Time;durP1;ratioP1;P1;durP2;ratioP2;P2;SDS_P1;SDS_P2;PMS_P1;PMS_P2;Temp;Humidity;BMP_temperature;BMP_pressure;BME280_temperature;BME280_humidity;BME280_pressure;Samples;Min_cycle;Max_cycle;Signal;HPM_P1;HPM_P2
2023/02/16 00:01:34;;;;;;;87.75;36.38;;;;;;;13.47;92.08;102213.28;5095088;28;20029;-53
2023/02/16 00:04:01;;;;;;;87.47;36.40;;;;;;;13.39;93.66;102210.66;5098317;28;20055;-53
2023/02/16 00:06:28;;;;;;;88.55;36.45;;;;;;;13.54;92.78;102211.53;5096817;28;20095;-54
2023/02/16 00:08:54;;;;;;;;;;;;;;;13.89;89.94;102228.03;5099133;28;20040;-49
2023/02/16 00:14:21;;;;;;;93.88;39.63;;;;;;;13.80;90.34;102218.34;5096688;28;20054;-51
2023/02/16 00:16:47;;;;;;;87.30;38.35;;;;;;;13.86;89.14;102214.09;5098490;28;20040;-51
2023/02/16 00:19:17;;;;;;;95.57;38.53;;;;;;;13.81;89.76;102214.66;5099346;28;20046;-51
2023/02/16 00:21:43;;;;;;;82.88;36.95;;;;;;;13.52;90.38;102216.25;5101182;28;20049;-53
2023/02/16 00:24:09;;;;;;;81.60;33.97;;;;;;;13.38;90.95;102214.31;5102282;28;20044;-53
2023/02/16 00:26:34;;;;;;;91.77;38.67;;;;;;;13.28;91.63;102215.41;5102739;28;20095;-50
2023/02/16 00:29:00;;;;;;;85.65;35.85;;;;;;;13.41;90.83;102214.00;5093998;28;20028;-48
2023/02/16 00:31:30;;;;;;;;;;;;;;;13.21;91.85;102217.16;5099072;28;20030;-53
2023/02/16 00:33:57;;;;;;;76.63;34.58;;;;;;;13.47;90.57;102213.28;5096939;28;19920;-50
2023/02/16 00:36:23;;;;;;;88.63;37.75;;;;;;;13.23;92.13;102207.06;5101127;28;20036;-50
2023/02/16 00:38:48;;;;;;;80.22;35.42;;;;;;;13.32;91.81;102208.66;5100545;28;20032;-50
2023/02/16 00:44:05;;;;;;;80.45;36.80;;;;;;;13.25;91.89;102205.03;5099446;28;20032;-50
2023/02/16 00:46:30;;;;;;;70.13;33.30;;;;;;;13.34;91.67;102209.31;5095483;28;20036;-52
2023/02/16 00:48:56;;;;;;;79.82;34.60;;;;;;;13.60;90.55;102202.75;5115408;28;20035;-51
2023/02/16 00:51:23;;;;;;;82.00;35.70;;;;;;;13.38;91.82;102192.81;5081177;28;20506;-49
2023/02/16 00:53:49;;;;;;;83.43;34.05;;;;;;;13.30;92.06;102196.44;5101686;28;20096;-49
2023/02/16 00:56:18;;;;;;;81.97;36.53;;;;;;;13.47;92.07;102207.91;5079648;28;20066;-53
2023/02/16 00:58:44;;;;;;;89.35;37.75;;;;;;;13.48;90.30;102209.59;5085470;28;20264;-50
2023/02/16 01:01:14;;;;;;;84.57;37.50;;;;;;;13.20;91.91;102191.31;5084293;28;20070;-49
2023/02/16 01:03:42;;;;;;;83.55;37.63;;;;;;;13.36;91.81;102195.72;5104709;28;20103;-54
2023/02/16 01:11:50;;;;;;;80.72;34.75;;;;;;;13.46;91.68;102198.19;5102386;28;20095;-49
2023/02/16 01:14:16;;;;;;;75.15;34.47;;;;;;;13.15;93.26;102199.06;5108934;28;20040;-52
2023/02/16 01:16:42;;;;;;;79.43;37.07;;;;;;;13.11;93.67;102198.59;5099729;28;20032;-49
2023/02/16 01:19:10;;;;;;;80.22;36.67;;;;;;;13.37;92.23;102201.91;5103353;28;20039;-50
2023/02/16 01:21:36;;;;;;;87.72;38.05;;;;;;;13.05;93.98;102189.38;5079837;28;20029;-51
2023/02/16 01:24:02;;;;;;;70.80;35.10;;;;;;;13.21;92.66;102184.91;5102533;28;20031;-50
2023/02/16 01:26:41;;;;;;;80.93;37.43;;;;;;;13.16;93.87;102181.94;5097744;28;20079;-49
2023/02/16 01:29:15;;;;;;;76.70;34.40;;;;;;;13.09;93.58;102175.59;5100581;28;20035;-51
2023/02/16 01:31:42;;;;;;;87.97;37.40;;;;;;;12.87;94.88;102175.41;5081498;28;20066;-53
2023/02/16 01:34:08;;;;;;;86.13;39.40;;;;;;;13.27;93.05;102170.75;5096756;28;20044;-50
2023/02/16 01:36:40;;;;;;;83.50;37.55;;;;;;;13.57;90.96;102168.16;5082115;28;20032;-50
2023/02/16 01:39:06;;;;;;;81.38;37.72;;;;;;;13.71;89.87;102188.03;5092735;28;20096;-48
2023/02/16 01:41:58;;;;;;;82.07;39.00;;;;;;;13.30;91.47;102170.41;5079816;28;20096;-52
2023/02/16 01:44:50;;;;;;;88.47;37.85;;;;;;;13.53;89.61;102169.56;5101064;28;20036;-51
2023/02/16 01:47:40;;;;;;;89.35;39.92;;;;;;;13.27;91.68;102165.38;5099067;28;20035;-52
2023/02/16 01:50:30;;;;;;;74.90;35.22;;;;;;;13.18;91.71;102166.47;5102671;28;20107;-49
2023/02/16 01:53:20;;;;;;;79.20;34.85;;;;;;;13.16;91.97;102157.78;5083722;28;20036;-49
2023/02/16 01:55:52;;;;;;;80.03;34.30;;;;;;;13.46;89.76;102165.94;5078628;28;20036;-51
2023/02/16 01:58:34;;;;;;;78.25;33.65;;;;;;;13.11;91.27;102165.50;5106738;28;20108;-49
2023/02/16 02:01:00;;;;;;;75.35;33.92;;;;;;;13.20;91.85;102159.06;5085017;28;20032;-52
2023/02/16 02:06:28;;;;;;;85.35;37.90;;;;;;;13.30;91.46;102156.16;5099598;28;20084;-52
2023/02/16 02:09:32;;;;;;;88.10;38.60;;;;;;;13.21;92.80;102152.69;5084720;28;20139;-51
2023/02/16 02:12:09;;;;;;;83.10;35.83;;;;;;;13.06;93.72;102147.28;5064447;28;20044;-46
2023/02/16 02:14:38;;;;;;;80.37;37.10;;;;;;;13.19;93.43;102154.72;5083876;28;20036;-52
2023/02/16 02:17:13;;;;;;;89.60;35.42;;;;;;;13.47;91.10;102149.63;5098268;28;20036;-47
2023/02/16 02:19:53;;;;;;;88.13;38.35;;;;;;;13.69;90.17;102151.59;5104664;28;20028;-54
2023/02/16 02:26:01;;;;;;;83.82;38.17;;;;;;;13.69;91.05;102146.22;5086739;28;20030;-52
2023/02/16 02:28:30;;;;;;;82.72;37.30;;;;;;;13.39;92.50;102135.41;5075452;28;20043;-53
2023/02/16 02:31:15;;;;;;;85.20;37.35;;;;;;;13.27;93.75;102133.16;5100612;28;20059;-53
2023/02/16 02:33:52;;;;;;;80.13;36.75;;;;;;;13.26;93.59;102141.38;5098272;28;20058;-55
2023/02/16 02:36:39;;;;;;;85.68;39.70;;;;;;;13.72;90.29;102135.91;5085868;28;20058;-53
2023/02/16 02:39:33;;;;;;;81.65;37.70;;;;;;;13.45;90.80;102137.41;5075900;28;20037;-51
2023/02/16 02:42:16;;;;;;;82.63;33.67;;;;;;;13.60;90.25;102132.84;5103459;28;20028;-50
2023/02/16 02:45:00;;;;;;;79.32;36.22;;;;;;;13.66;88.92;102138.53;5081135;28;20062;-49
2023/02/16 02:47:37;;;;;;;83.32;37.95;;;;;;;13.56;90.00;102131.56;5081575;28;20028;-55
2023/02/16 02:50:02;;;;;;;84.35;35.70;;;;;;;13.55;91.28;102116.44;5074339;28;20029;-55
2023/02/16 02:52:28;;;;;;;72.72;34.08;;;;;;;13.67;90.45;102116.81;5100251;28;20043;-52
2023/02/16 03:00:42;;;;;;;81.53;36.88;;;;;;;13.24;94.49;102117.41;5111647;28;20029;-49
2023/02/16 03:03:26;;;;;;;77.53;35.38;;;;;;;13.07;94.65;102115.88;5082283;28;20032;-51
2023/02/16 03:05:58;;;;;;;84.50;37.17;;;;;;;13.12;94.12;102116.16;5080593;28;20036;-52
2023/02/16 03:08:30;;;;;;;85.05;37.67;;;;;;;13.17;94.18;102121.84;5100594;28;20044;-52
2023/02/16 03:13:57;;;;;;;83.82;38.60;;;;;;;13.45;91.56;102103.28;5097280;28;20043;-49
2023/02/16 03:16:32;;;;;;;88.20;37.25;;;;;;;13.56;90.39;102106.56;5095076;28;20041;-51
2023/02/16 03:30:07;;;;;;;87.60;36.53;;;;;;;13.20;90.67;102094.59;5092938;28;20033;-48
2023/02/16 03:32:33;;;;;;;87.18;37.10;;;;;;;12.89;91.20;102090.16;5097784;28;20036;-51
2023/02/16 03:34:59;;;;;;;85.85;38.55;;;;;;;13.14;90.80;102090.78;5096643;28;20071;-51
2023/02/16 03:37:25;;;;;;;92.57;41.03;;;;;;;13.06;90.98;102082.81;5103951;28;20039;-51
2023/02/16 03:42:35;;;;;;;90.18;36.80;;;;;;;13.02;90.86;102087.72;5097757;28;20028;-51
2023/02/16 03:45:01;;;;;;;89.20;35.95;;;;;;;13.49;88.92;102087.63;5099226;28;20039;-51
2023/02/16 03:47:26;;;;;;;97.50;37.50;;;;;;;13.38;88.30;102082.66;5098895;28;20054;-52
2023/02/16 03:49:51;;;;;;;80.50;36.53;;;;;;;13.41;87.79;102085.00;5098592;28;20102;-50
2023/02/16 03:52:17;;;;;;;88.10;37.80;;;;;;;13.29;89.21;102088.13;5101817;28;20036;-51
2023/02/16 03:54:43;;;;;;;86.63;36.90;;;;;;;13.12;89.88;102092.81;5102560;28;20040;-49
2023/02/16 03:57:09;;;;;;;92.47;39.50;;;;;;;13.12;89.49;102103.56;5108152;28;20056;-54
2023/02/16 03:59:34;;;;;;;80.03;36.20;;;;;;;13.14;89.83;102106.91;5099851;28;20280;-47
2023/02/16 04:01:59;;;;;;;82.93;37.70;;;;;;;13.12;90.62;102116.16;5098189;28;20039;-50
2023/02/16 04:04:25;;;;;;;78.23;36.30;;;;;;;12.94;92.17;102117.31;5106689;28;20033;-51
2023/02/16 04:06:51;;;;;;;89.85;38.58;;;;;;;12.79;93.87;102121.78;5097694;28;20025;-50
2023/02/16 04:09:16;;;;;;;83.97;39.07;;;;;;;12.45;95.94;102113.94;5101069;28;20059;-49
2023/02/16 04:14:27;;;;;;;85.93;38.03;;;;;;;13.12;93.89;102110.78;5099890;28;20103;-48
2023/02/16 04:16:54;;;;;;;97.40;41.00;;;;;;;12.84;96.83;102111.34;5103211;28;20040;-53
2023/02/16 04:19:22;;;;;;;91.00;39.25;;;;;;;13.11;95.26;102109.97;5107158;28;20047;-50
2023/02/16 04:21:48;;;;;;;90.22;37.72;;;;;;;13.55;91.07;102107.56;5095978;28;20060;-47
2023/02/16 04:24:14;;;;;;;97.05;39.58;;;;;;;13.24;92.96;102111.19;5102398;28;20028;-50
2023/02/16 04:26:39;;;;;;;83.37;37.00;;;;;;;12.99;94.44;102109.56;5103170;28;20091;-52
2023/02/16 04:29:05;;;;;;;91.67;38.83;;;;;;;12.98;94.61;102105.19;5105350;28;20082;-48
2023/02/16 04:31:30;;;;;;;84.13;36.67;;;;;;;13.12;94.08;102110.78;5098254;28;20021;-49
2023/02/16 04:33:56;;;;;;;84.83;37.53;;;;;;;12.79;95.53;102113.75;5101267;28;20060;-51
2023/02/16 04:36:21;;;;;;;87.35;38.35;;;;;;;12.69;96.58;102109.44;5101128;28;20036;-50
2023/02/16 04:38:47;;;;;;;82.13;36.90;;;;;;;12.87;95.41;102113.66;5100736;28;20033;-51
2023/02/16 04:41:12;;;;;;;89.30;39.37;;;;;;;13.25;93.82;102100.25;5080376;28;20305;-52
2023/02/16 04:43:38;;;;;;;88.87;40.33;;;;;;;13.02;94.39;102098.44;5086276;28;20036;-51
2023/02/16 04:46:03;;;;;;;89.83;41.90;;;;;;;13.20;93.88;102098.13;5102184;28;20410;-51
2023/02/16 04:48:29;;;;;;;83.82;39.78;;;;;;;13.06;94.13;102093.56;5095773;28;20032;-51
2023/02/16 04:50:54;;;;;;;87.00;37.93;;;;;;;13.30;93.11;102095.16;5102270;28;20035;-47
2023/02/16 04:53:20;;;;;;;86.57;39.10;;;;;;;13.13;94.48;102099.03;5100118;28;20360;-48
2023/02/16 04:55:47;;;;;;;91.60;42.17;;;;;;;12.81;96.58;102100.97;5099943;28;20119;-49
2023/02/16 04:58:14;;;;;;;89.60;40.17;;;;;;;12.81;97.30;102096.44;5097893;28;20059;-52
2023/02/16 05:00:40;;;;;;;84.32;38.67;;;;;;;12.89;96.50;102099.06;5082259;28;20046;-49
2023/02/16 05:03:05;;;;;;;92.30;38.95;;;;;;;13.02;96.33;102100.28;5082950;28;20033;-50
2023/02/16 05:05:30;;;;;;;86.00;40.07;;;;;;;13.12;96.09;102108.09;5104476;28;20032;-55
2023/02/16 05:07:56;;;;;;;97.53;39.90;;;;;;;12.87;97.31;102105.59;5107299;28;20104;-49
2023/02/16 05:10:21;;;;;;;89.23;39.50;;;;;;;13.19;95.47;102098.31;5105532;28;20028;-48
2023/02/16 05:15:31;;;;;;;90.05;40.05;;;;;;;13.19;94.57;102098.31;5100784;28;20035;-51
2023/02/16 05:17:57;;;;;;;98.80;40.10;;;;;;;13.07;96.14;102094.38;5104643;28;20032;-52
2023/02/16 05:21:28;;;;;;;98.20;41.63;;;;;;;13.18;96.38;102100.16;5098383;28;20051;-53
2023/02/16 05:23:08;;;;;;;85.82;39.28;;;;;;;12.94;97.53;102095.00;5095667;28;20269;-49
2023/02/16 05:25:33;;;;;;;91.88;40.15;;;;;;;13.39;94.67;102085.19;5101558;28;20779;-48
2023/02/16 05:27:59;;;;;;;93.77;40.73;;;;;;;13.74;92.46;102085.50;5097236;28;20040;-48
2023/02/16 05:30:24;;;;;;;86.63;38.60;;;;;;;14.19;89.71;102080.06;5104505;28;20040;-49
2023/02/16 05:32:50;;;;;;;97.13;41.20;;;;;;;13.79;91.46;102081.44;5100143;28;20126;-52
2023/02/16 05:35:15;;;;;;;95.77;40.67;;;;;;;13.81;91.61;102084.75;5099581;28;20051;-49
2023/02/16 05:37:41;;;;;;;86.83;39.30;;;;;;;13.70;92.95;102094.13;5099012;28;20091;-50
2023/02/16 05:40:07;;;;;;;91.60;40.37;;;;;;;13.30;94.95;102100.53;5100739;28;20307;-50
2023/02/16 05:42:32;;;;;;;89.22;40.72;;;;;;;13.24;95.64;102070.88;5082878;28;20040;-51
2023/02/16 05:44:58;;;;;;;88.15;39.72;;;;;;;13.21;96.07;102072.09;5105545;28;20028;-51
2023/02/16 05:47:23;;;;;;;90.97;39.30;;;;;;;13.75;93.76;102073.75;5086497;28;20032;-52
2023/02/16 05:49:49;;;;;;;97.13;40.83;;;;;;;13.06;97.18;102088.19;5098276;28;20088;-47
2023/02/16 05:52:14;;;;;;;87.60;38.73;;;;;;;13.12;97.60;102089.28;5100816;28;20265;-51
2023/02/16 05:54:40;;;;;;;84.63;39.40;;;;;;;13.53;94.50;102088.09;5105624;28;20024;-49
2023/02/16 05:57:05;;;;;;;88.03;38.17;;;;;;;13.19;95.78;102093.75;5107098;28;20391;-48
2023/02/16 05:59:31;;;;;;;97.77;40.17;;;;;;;13.00;97.74;102092.44;5101304;28;20033;-51
2023/02/16 06:01:56;;;;;;;97.13;41.70;;;;;;;13.14;97.19;102085.41;5095633;28;20052;-52
2023/02/16 06:04:22;;;;;;;86.60;39.83;;;;;;;13.17;96.96;102084.22;5094117;28;20028;-52
2023/02/16 06:06:48;;;;;;;97.57;40.93;;;;;;;13.86;91.58;102079.66;5099289;28;20059;-49
2023/02/16 06:09:13;;;;;;;91.57;39.87;;;;;;;13.69;92.24;102074.47;5092567;28;20063;-51
2023/02/16 06:11:39;;;;;;;90.10;38.63;;;;;;;13.73;90.32;102067.72;5099978;28;20269;-53
2023/02/16 06:14:11;;;;;;;91.67;40.77;;;;;;;13.53;91.90;102083.56;5103612;28;20038;-51
2023/02/16 06:16:39;;;;;;;93.18;41.22;;;;;;;13.72;91.91;102068.72;5100989;28;20029;-50
2023/02/16 06:19:05;;;;;;;84.10;36.88;;;;;;;13.85;90.13;102072.63;5097707;28;20051;-48
2023/02/16 06:21:31;;;;;;;86.10;40.58;;;;;;;13.65;91.56;102072.34;5102113;28;20071;-50
2023/02/16 06:23:57;;;;;;;;;;;;;;;13.13;96.04;102075.69;5099543;28;20096;-51
2023/02/16 06:26:23;;;;;;;89.17;39.37;;;;;;;13.37;93.50;102086.38;5101578;28;19916;-51
2023/02/16 06:28:48;;;;;;;91.43;39.05;;;;;;;13.64;92.37;102090.31;5099573;28;20040;-51
2023/02/16 06:31:14;;;;;;;92.30;42.03;;;;;;;13.64;91.78;102089.50;5096258;28;20035;-49
2023/02/16 06:33:40;;;;;;;94.20;42.93;;;;;;;13.49;93.10;102087.63;5099182;28;20059;-55
2023/02/16 06:36:06;;;;;;;92.67;39.37;;;;;;;13.75;92.66;102089.88;5099361;28;20035;-50
2023/02/16 06:38:31;;;;;;;92.03;40.55;;;;;;;13.58;92.43;102097.25;5095851;28;20036;-52
2023/02/16 06:40:57;;;;;;;88.67;38.80;;;;;;;13.64;92.67;102090.31;5093958;28;20100;-51
2023/02/16 06:43:22;;;;;;;93.75;40.35;;;;;;;13.56;93.54;102096.63;5102265;28;20046;-52
2023/02/16 06:45:48;;;;;;;97.47;38.60;;;;;;;13.69;92.52;102104.03;5077363;28;20032;-51
2023/02/16 06:48:13;;;;;;;87.75;39.33;;;;;;;13.36;94.57;102104.34;5095830;28;20024;-52
2023/02/16 06:50:39;;;;;;;93.07;39.30;;;;;;;13.52;92.92;102102.56;5094532;28;20044;-53
2023/02/16 06:53:05;;;;;;;91.63;39.23;;;;;;;13.51;93.38;102090.16;5092769;28;20032;-53
2023/02/16 06:55:34;;;;;;;91.47;40.73;;;;;;;13.64;92.45;102098.38;5096654;28;20028;-49
2023/02/16 06:58:00;;;;;;;86.05;39.67;;;;;;;13.52;94.00;102095.31;5098458;28;20269;-49
2023/02/16 07:00:25;;;;;;;92.23;37.00;;;;;;;13.53;93.32;102088.94;5094879;28;20033;-49
2023/02/16 07:02:52;;;;;;;90.15;40.08;;;;;;;13.82;92.12;102091.81;5095900;28;20117;-53
2023/02/16 07:05:17;;;;;;;95.10;39.42;;;;;;;13.83;92.14;102091.59;5097229;28;20251;-50
2023/02/16 07:07:42;;;;;;;92.33;40.23;;;;;;;13.72;93.25;102097.47;5100591;28;20064;-51
2023/02/16 07:10:08;;;;;;;92.32;39.88;;;;;;;13.88;92.51;102094.59;5094776;28;20029;-49
2023/02/16 07:12:34;;;;;;;81.55;36.15;;;;;;;13.90;91.74;102108.69;5096419;28;20044;-50
2023/02/16 07:15:00;;;;;;;93.68;42.25;;;;;;;13.82;92.26;102094.50;5098498;28;20046;-48
2023/02/16 07:17:25;;;;;;;93.33;37.90;;;;;;;13.36;95.10;102093.63;5100744;28;20028;-49
2023/02/16 07:19:51;;;;;;;91.07;39.77;;;;;;;13.66;95.10;102103.59;5100672;28;20122;-51
2023/02/16 07:22:17;;;;;;;83.37;37.43;;;;;;;13.60;93.66;102100.59;5096301;28;20254;-50
2023/02/16 07:24:42;;;;;;;73.37;31.50;;;;;;;13.81;94.08;102111.66;5098317;28;20036;-52
2023/02/16 07:27:08;;;;;;;80.22;35.60;;;;;;;13.64;94.87;102106.44;5098675;28;20032;-52
2023/02/16 07:29:34;;;;;;;84.37;38.80;;;;;;;13.61;95.46;102107.66;5103142;28;20048;-53
2023/02/16 07:32:01;;;;;;;83.68;35.28;;;;;;;13.82;93.75;102114.13;5103830;28;20256;-49
2023/02/16 07:34:26;;;;;;;90.47;39.35;;;;;;;13.50;96.39;102108.13;5098693;28;20052;-50
2023/02/16 07:36:52;;;;;;;87.03;37.37;;;;;;;13.83;95.15;102110.44;5101628;28;20043;-52
2023/02/16 07:39:17;;;;;;;90.03;41.00;;;;;;;13.90;94.67;102110.53;5105100;28;20033;-51
2023/02/16 07:41:43;;;;;;;91.03;39.30;;;;;;;13.92;94.81;102103.09;5103058;28;20036;-48
2023/02/16 07:44:08;;;;;;;90.50;39.38;;;;;;;14.20;94.16;102113.19;5101261;28;20300;-50
2023/02/16 07:46:34;;;;;;;103.53;42.57;;;;;;;13.97;94.36;102114.16;5099296;28;20032;-51
2023/02/16 07:48:59;;;;;;;93.70;39.27;;;;;;;14.38;91.89;102112.78;5101352;28;20029;-52
2023/02/16 07:51:27;;;;;;;102.07;45.23;;;;;;;14.37;90.91;102121.03;5098965;28;20273;-51
2023/02/16 07:53:53;;;;;;;96.07;41.78;;;;;;;14.30;92.07;102124.47;5101566;28;20036;-49
2023/02/16 07:56:21;;;;;;;79.45;36.85;;;;;;;14.13;93.04;102121.19;5101268;28;20056;-48
2023/02/16 07:58:46;;;;;;;87.65;37.88;;;;;;;14.02;93.01;102124.34;5102872;28;20040;-52
2023/02/16 08:01:16;;;;;;;79.82;37.22;;;;;;;14.41;91.54;102123.16;5108514;28;20028;-47
2023/02/16 08:03:42;;;;;;;86.57;39.75;;;;;;;14.88;88.60;102133.63;5103509;28;20036;-54
2023/02/16 08:06:08;;;;;;;79.85;36.85;;;;;;;14.70;89.46;102125.97;5102420;28;20028;-49
2023/02/16 08:08:35;;;;;;;78.63;36.47;;;;;;;14.73;89.59;102134.50;5101627;28;20097;-51
2023/02/16 08:11:21;;;;;;;79.15;36.63;;;;;;;15.14;87.19;102148.34;5101700;28;20035;-51
2023/02/16 08:13:48;;;;;;;83.25;35.95;;;;;;;14.68;88.88;102147.69;5099988;28;20032;-52
2023/02/16 08:16:25;;;;;;;87.85;38.03;;;;;;;14.96;88.25;102149.63;5103798;28;20088;-49
2023/02/16 08:18:52;;;;;;;79.68;35.33;;;;;;;15.15;87.58;102155.41;5099134;28;20088;-48
2023/02/16 08:21:23;;;;;;;79.53;37.22;;;;;;;14.89;88.19;102146.06;5104088;28;20028;-50
2023/02/16 08:23:53;;;;;;;77.68;35.65;;;;;;;15.43;86.51;102147.34;5098203;28;20040;-52
2023/02/16 08:26:21;;;;;;;75.20;34.20;;;;;;;14.58;91.02;102153.38;5100996;28;20054;-49
2023/02/16 08:28:48;;;;;;;75.22;33.45;;;;;;;14.52;90.93;102146.06;5099456;28;20031;-49
2023/02/16 08:31:28;;;;;;;77.72;33.88;;;;;;;14.70;90.82;102148.31;5099789;28;20051;-49
2023/02/16 08:33:55;;;;;;;80.85;34.78;;;;;;;14.72;91.23;102151.69;5098088;28;20052;-53
2023/02/16 08:36:31;;;;;;;79.97;35.50;;;;;;;14.22;93.25;102145.28;5100513;28;20040;-53
2023/02/16 08:38:58;;;;;;;85.68;35.50;;;;;;;14.82;91.17;102145.16;5103176;28;20032;-52
2023/02/16 08:41:29;;;;;;;74.72;35.25;;;;;;;14.57;91.64;102156.25;5103306;28;20040;-51
2023/02/16 08:43:54;;;;;;;81.82;36.80;;;;;;;14.55;92.40;102155.63;5101137;28;20043;-51
2023/02/16 08:46:21;;;;;;;81.60;34.97;;;;;;;14.45;93.00;102151.34;5103347;28;20039;-54
2023/02/16 08:48:47;;;;;;;79.93;36.08;;;;;;;14.42;92.74;102157.13;5101827;28;20069;-52
2023/02/16 08:51:14;;;;;;;;;;;;;;;14.71;91.91;102155.41;5102422;28;20028;-53
2023/02/16 08:53:40;;;;;;;71.75;34.00;;;;;;;15.13;89.59;102166.41;5097399;28;19927;-56
2023/02/16 08:56:05;;;;;;;72.47;35.00;;;;;;;15.30;87.46;102166.09;5097192;28;20028;-50
2023/02/16 08:58:31;;;;;;;69.78;34.28;;;;;;;15.21;87.31;102170.78;5099184;28;20044;-55
2023/02/16 09:00:57;;;;;;;77.17;33.60;;;;;;;14.87;89.33;102177.72;5099392;28;20040;-51
2023/02/16 09:03:23;;;;;;;86.40;34.50;;;;;;;14.99;88.51;102167.28;5099858;28;20281;-50
2023/02/16 09:05:52;;;;;;;74.45;34.78;;;;;;;15.17;87.76;102172.22;5096544;28;20043;-49
2023/02/16 09:08:18;;;;;;;74.97;35.40;;;;;;;14.94;89.90;102169.72;5103667;28;20098;-51
2023/02/16 09:10:44;;;;;;;75.65;34.05;;;;;;;14.84;92.17;102172.72;5096846;28;20024;-55
2023/02/16 09:13:13;;;;;;;78.50;36.47;;;;;;;14.59;95.58;102171.19;5101908;28;20029;-51
2023/02/16 09:15:40;;;;;;;76.43;36.70;;;;;;;14.69;96.42;102173.56;5103445;28;20052;-52
2023/02/16 09:18:07;;;;;;;79.68;36.80;;;;;;;14.94;94.87;102175.94;5099840;28;20025;-50
2023/02/16 09:20:36;;;;;;;83.38;39.10;;;;;;;14.59;99.32;102167.69;5099524;28;20036;-53
2023/02/16 09:23:02;;;;;;;79.93;38.28;;;;;;;14.98;97.19;102168.31;5099801;28;20034;-53
2023/02/16 09:25:28;;;;;;;72.35;36.35;;;;;;;14.88;95.85;102169.47;5085688;28;20060;-52
2023/02/16 09:27:54;;;;;;;90.85;39.63;;;;;;;14.56;98.76;102170.75;5094076;28;20040;-53
2023/02/16 09:30:19;;;;;;;83.17;38.47;;;;;;;14.87;100.00;102158.88;5095699;28;20086;-51
2023/02/16 09:32:45;;;;;;;91.23;40.00;;;;;;;14.74;100.00;102171.16;5098759;28;20269;-51
2023/02/16 09:35:10;;;;;;;85.27;40.03;;;;;;;14.63;100.00;102160.88;5094643;28;20048;-50
2023/02/16 09:37:36;;;;;;;91.87;40.17;;;;;;;14.74;100.00;102175.75;5105770;28;20304;-48
2023/02/16 09:40:03;;;;;;;88.90;39.53;;;;;;;14.77;100.00;102167.28;5096463;28;20047;-52
2023/02/16 09:42:51;;;;;;;93.50;42.47;;;;;;;14.63;100.00;102168.97;5102358;28;20041;-50
2023/02/16 09:45:19;;;;;;;;;;;;;;;14.56;100.00;102174.25;5096291;28;20112;-51
2023/02/16 09:47:47;;;;;;;91.40;40.72;;;;;;;14.45;100.00;102172.06;5095395;28;19923;-51
2023/02/16 09:50:21;;;;;;;93.47;41.60;;;;;;;14.01;100.00;102171.94;5097131;28;20040;-51
2023/02/16 09:52:56;;;;;;;102.18;45.17;;;;;;;14.05;100.00;102165.16;5093381;28;20070;-51
2023/02/16 09:55:24;;;;;;;96.18;43.15;;;;;;;14.33;100.00;102169.03;5094517;28;20039;-50
2023/02/16 09:58:16;;;;;;;99.38;44.30;;;;;;;14.55;100.00;102163.69;5099263;28;20097;-52
2023/02/16 10:01:00;;;;;;;98.85;45.75;;;;;;;14.29;100.00;102167.72;5095311;28;20051;-50
2023/02/16 10:03:51;;;;;;;105.82;47.45;;;;;;;14.37;100.00;102162.25;5101691;28;20087;-52
2023/02/16 10:06:40;;;;;;;106.18;44.03;;;;;;;14.49;100.00;102176.03;5099277;28;20033;-54
2023/02/16 10:09:11;;;;;;;108.55;44.83;;;;;;;14.59;100.00;102173.06;5098189;28;20037;-51
2023/02/16 10:11:48;;;;;;;108.85;45.92;;;;;;;14.96;100.00;102162.28;5099806;28;20028;-51
2023/02/16 10:14:23;;;;;;;120.82;48.20;;;;;;;14.34;100.00;102174.22;5096938;28;20036;-53
2023/02/16 10:17:05;;;;;;;102.70;47.20;;;;;;;14.45;100.00;102174.75;5098007;28;20037;-53
2023/02/16 10:19:39;;;;;;;112.95;47.78;;;;;;;14.25;100.00;102152.97;5101466;28;20039;-52
2023/02/16 10:22:09;;;;;;;107.68;50.30;;;;;;;14.34;100.00;102157.25;5097374;28;20067;-52
2023/02/16 10:25:06;;;;;;;137.70;50.50;;;;;;;14.43;100.00;102164.16;5104095;28;20040;-53
2023/02/16 10:27:37;;;;;;;122.35;48.83;;;;;;;14.48;100.00;102172.50;5097272;28;20047;-51
2023/02/16 10:30:17;;;;;;;129.73;52.40;;;;;;;14.24;100.00;102164.75;5099409;28;20035;-53
2023/02/16 10:32:56;;;;;;;114.55;49.47;;;;;;;14.57;100.00;102170.53;5100114;28;20031;-50
2023/02/16 10:35:35;;;;;;;125.97;53.17;;;;;;;14.34;100.00;102166.13;5095159;28;20122;-54
2023/02/16 10:38:23;;;;;;;125.10;51.90;;;;;;;14.49;100.00;102168.78;5104266;28;20091;-48
2023/02/16 10:40:57;;;;;;;118.22;53.25;;;;;;;14.52;100.00;102172.13;5096083;28;20045;-54
2023/02/16 10:43:40;;;;;;;122.43;53.80;;;;;;;14.63;100.00;102166.25;5096051;28;20059;-49
2023/02/16 10:46:09;;;;;;;132.88;55.00;;;;;;;14.76;100.00;102169.16;5092878;28;20044;-55
2023/02/16 10:48:36;;;;;;;133.20;54.65;;;;;;;15.61;100.00;102176.50;5100325;28;20043;-54
2023/02/16 10:51:09;;;;;;;132.18;57.45;;;;;;;15.54;100.00;102172.94;5099889;28;20028;-56
2023/02/16 10:53:42;;;;;;;137.90;58.13;;;;;;;15.51;100.00;102176.03;5099211;28;20036;-50
2023/02/16 10:56:52;;;;;;;136.38;58.15;;;;;;;15.58;100.00;102174.22;5099462;28;20028;-52
2023/02/16 10:59:20;;;;;;;157.52;71.22;;;;;;;15.35;100.00;102174.47;5100180;28;20040;-50
2023/02/16 11:01:49;;;;;;;187.98;85.60;;;;;;;15.20;100.00;102161.88;5099648;28;20028;-51
2023/02/16 11:04:37;;;;;;;182.55;85.25;;;;;;;15.35;100.00;102163.69;5096716;28;20032;-53
2023/02/16 11:07:13;;;;;;;157.07;72.40;;;;;;;15.21;100.00;102168.09;5097092;28;20032;-52
2023/02/16 11:09:40;;;;;;;142.95;60.33;;;;;;;15.46;100.00;102160.44;5098057;28;20032;-55
2023/02/16 11:12:24;;;;;;;133.07;59.10;;;;;;;15.24;100.00;102161.50;5092622;28;20028;-50
2023/02/16 11:14:53;;;;;;;141.27;60.30;;;;;;;15.82;100.00;102155.91;5092674;28;20142;-50
2023/02/16 11:17:21;;;;;;;138.20;56.65;;;;;;;15.43;100.00;102157.28;5098275;28;20024;-51
2023/02/16 11:20:08;;;;;;;126.10;55.15;;;;;;;14.76;100.00;102158.38;5102778;28;20039;-52
2023/02/16 11:22:36;;;;;;;128.20;55.25;;;;;;;15.00;100.00;102159.03;5095661;28;20036;-53
2023/02/16 11:25:18;;;;;;;117.07;51.70;;;;;;;14.73;100.00;102150.66;5095912;28;20054;-53
2023/02/16 11:27:57;;;;;;;124.88;55.22;;;;;;;15.31;100.00;102159.69;5095201;28;20047;-52
2023/02/16 11:30:34;;;;;;;111.97;52.47;;;;;;;15.46;100.00;102146.94;5095962;28;20039;-50
2023/02/16 11:33:03;;;;;;;125.13;56.63;;;;;;;15.50;100.00;102147.41;5099388;28;20569;-51
2023/02/16 11:35:31;;;;;;;120.03;50.58;;;;;;;15.29;100.00;102142.88;5096387;28;20061;-49
2023/02/16 11:37:58;;;;;;;118.72;52.05;;;;;;;15.59;100.00;102140.81;5097191;28;20044;-54
2023/02/16 11:40:33;;;;;;;113.03;51.60;;;;;;;15.96;100.00;102139.84;5097364;28;20040;-50
2023/02/16 11:43:01;;;;;;;110.07;47.55;;;;;;;16.51;100.00;102133.59;5094993;28;20095;-52
2023/02/16 11:45:35;;;;;;;98.03;49.05;;;;;;;16.34;100.00;102132.09;5097170;28;20028;-52
2023/02/16 11:48:06;;;;;;;100.43;46.55;;;;;;;15.73;100.00;102125.56;5094817;28;20048;-50
2023/02/16 11:50:37;;;;;;;97.57;45.05;;;;;;;15.82;100.00;102118.13;5095756;28;20035;-53
2023/02/16 11:53:08;;;;;;;105.15;46.45;;;;;;;15.24;100.00;102121.91;5092436;28;20092;-50
2023/02/16 11:55:36;;;;;;;92.90;45.28;;;;;;;16.00;100.00;102119.50;5093868;28;20047;-52
2023/02/16 11:58:16;;;;;;;102.03;45.00;;;;;;;15.55;100.00;102119.84;5092272;28;20045;-48
2023/02/16 12:01:17;;;;;;;96.00;44.07;;;;;;;16.62;100.00;102116.81;5097950;28;20047;-50
2023/02/16 12:04:21;;;;;;;88.07;42.23;;;;;;;16.31;100.00;102118.16;5096940;28;20293;-50
2023/02/16 12:07:25;;;;;;;82.27;39.17;;;;;;;16.10;100.00;102119.94;5095664;28;20285;-50